sensor_id;sensor_type;location;lat;lon;timestamp;P1;durP1;ratioP1;P2;durP2;ratioP2
60257;SDS011;46115;44.484;11.314;2024-01-30T00:06:47;51.15;;;29.98;;
60257;SDS011;46115;44.484;11.314;2024-01-30T00:14:53;52.13;;;28.75;;
60257;SDS011;46115;44.484;11.314;2024-01-30T00:22:57;48.90;;;27.67;;
60257;SDS011;46115;44.484;11.314;2024-01-30T00:27:01;49.22;;;27.75;;
60257;SDS011;46115;44.484;11.314;2024-01-30T00:31:03;49.58;;;27.75;;
60257;SDS011;46115;44.484;11.314;2024-01-30T00:35:06;47.53;;;27.33;;
60257;SDS011;46115;44.484;11.314;2024-01-30T00:39:10;48.22;;;27.45;;
60257;SDS011;46115;44.484;11.314;2024-01-30T00:43:14;49.65;;;27.40;;
60257;SDS011;46115;44.484;11.314;2024-01-30T00:47:17;50.28;;;27.25;;
60257;SDS011;46115;44.484;11.314;2024-01-30T00:55:21;46.47;;;28.35;;
60257;SDS011;46115;44.484;11.314;2024-01-30T01:03:27;46.35;;;27.30;;
60257;SDS011;46115;44.484;11.314;2024-01-30T01:11:31;58.30;;;29.53;;
60257;SDS011;46115;44.484;11.314;2024-01-30T01:19:38;48.55;;;27.52;;
60257;SDS011;46115;44.484;11.314;2024-01-30T01:27:42;48.80;;;27.33;;
60257;SDS011;46115;44.484;11.314;2024-01-30T01:31:53;50.53;;;27.20;;
60257;SDS011;46115;44.484;11.314;2024-01-30T01:35:55;47.22;;;27.05;;
60257;SDS011;46115;44.484;11.314;2024-01-30T01:39:58;45.17;;;26.60;;
60257;SDS011;46115;44.484;11.314;2024-01-30T01:44:00;47.33;;;26.23;;
60257;SDS011;46115;44.484;11.314;2024-01-30T01:48:04;45.58;;;25.58;;
60257;SDS011;46115;44.484;11.314;2024-01-30T01:52:09;47.40;;;26.50;;
60257;SDS011;46115;44.484;11.314;2024-01-30T01:56:11;44.00;;;25.58;;
60257;SDS011;46115;44.484;11.314;2024-01-30T02:00:14;42.92;;;24.90;;
60257;SDS011;46115;44.484;11.314;2024-01-30T02:04:18;47.10;;;26.25;;
60257;SDS011;46115;44.484;11.314;2024-01-30T02:08:21;42.72;;;24.33;;
60257;SDS011;46115;44.484;11.314;2024-01-30T02:12:23;44.70;;;24.70;;
60257;SDS011;46115;44.484;11.314;2024-01-30T02:16:26;42.25;;;24.73;;
60257;SDS011;46115;44.484;11.314;2024-01-30T02:20:30;40.97;;;24.65;;
60257;SDS011;46115;44.484;11.314;2024-01-30T02:24:34;41.35;;;25.08;;
60257;SDS011;46115;44.484;11.314;2024-01-30T02:28:37;42.33;;;23.83;;
60257;SDS011;46115;44.484;11.314;2024-01-30T02:32:39;44.28;;;24.25;;
60257;SDS011;46115;44.484;11.314;2024-01-30T02:40:45;42.95;;;23.95;;
60257;SDS011;46115;44.484;11.314;2024-01-30T02:44:48;38.75;;;23.27;;
60257;SDS011;46115;44.484;11.314;2024-01-30T02:52:52;42.33;;;24.55;;
60257;SDS011;46115;44.484;11.314;2024-01-30T02:56:56;44.33;;;23.63;;
60257;SDS011;46115;44.484;11.314;2024-01-30T03:00:58;39.05;;;23.23;;
60257;SDS011;46115;44.484;11.314;2024-01-30T03:05:01;37.42;;;22.77;;
60257;SDS011;46115;44.484;11.314;2024-01-30T03:09:04;40.50;;;22.35;;
60257;SDS011;46115;44.484;11.314;2024-01-30T03:13:08;42.63;;;22.42;;
60257;SDS011;46115;44.484;11.314;2024-01-30T03:17:10;42.42;;;22.90;;
60257;SDS011;46115;44.484;11.314;2024-01-30T03:25:15;41.38;;;24.02;;
60257;SDS011;46115;44.484;11.314;2024-01-30T03:29:18;42.63;;;22.88;;
60257;SDS011;46115;44.484;11.314;2024-01-30T03:33:21;37.28;;;22.27;;
60257;SDS011;46115;44.484;11.314;2024-01-30T03:41:25;40.33;;;23.38;;
60257;SDS011;46115;44.484;11.314;2024-01-30T03:45:29;38.92;;;22.13;;
60257;SDS011;46115;44.484;11.314;2024-01-30T03:49:31;37.47;;;22.35;;
60257;SDS011;46115;44.484;11.314;2024-01-30T03:53:34;33.78;;;21.20;;
60257;SDS011;46115;44.484;11.314;2024-01-30T03:57:37;36.00;;;21.70;;
60257;SDS011;46115;44.484;11.314;2024-01-30T04:01:41;34.83;;;20.88;;
60257;SDS011;46115;44.484;11.314;2024-01-30T04:05:43;36.53;;;21.60;;
60257;SDS011;46115;44.484;11.314;2024-01-30T04:09:46;35.03;;;19.88;;
60257;SDS011;46115;44.484;11.314;2024-01-30T04:13:49;37.15;;;20.40;;
60257;SDS011;46115;44.484;11.314;2024-01-30T04:21:55;32.22;;;19.10;;
60257;SDS011;46115;44.484;11.314;2024-01-30T04:25:57;34.75;;;20.27;;
60257;SDS011;46115;44.484;11.314;2024-01-30T04:34:03;33.35;;;19.50;;
60257;SDS011;46115;44.484;11.314;2024-01-30T04:38:05;33.55;;;19.85;;
60257;SDS011;46115;44.484;11.314;2024-01-30T04:42:07;36.22;;;19.60;;
60257;SDS011;46115;44.484;11.314;2024-01-30T04:46:10;33.00;;;19.45;;
60257;SDS011;46115;44.484;11.314;2024-01-30T04:54:16;34.15;;;19.65;;
60257;SDS011;46115;44.484;11.314;2024-01-30T04:58:18;32.20;;;19.60;;
60257;SDS011;46115;44.484;11.314;2024-01-30T05:06:27;33.25;;;20.02;;
60257;SDS011;46115;44.484;11.314;2024-01-30T05:10:29;33.88;;;20.27;;
60257;SDS011;46115;44.484;11.314;2024-01-30T05:14:32;32.60;;;18.55;;
60257;SDS011;46115;44.484;11.314;2024-01-30T05:18:34;30.15;;;18.60;;
60257;SDS011;46115;44.484;11.314;2024-01-30T05:26:45;32.40;;;19.60;;
60257;SDS011;46115;44.484;11.314;2024-01-30T05:30:48;32.72;;;20.20;;
60257;SDS011;46115;44.484;11.314;2024-01-30T05:38:54;30.65;;;19.63;;
60257;SDS011;46115;44.484;11.314;2024-01-30T05:42:57;34.58;;;22.77;;
60257;SDS011;46115;44.484;11.314;2024-01-30T05:47:01;30.17;;;18.25;;
60257;SDS011;46115;44.484;11.314;2024-01-30T05:51:04;32.28;;;18.67;;
60257;SDS011;46115;44.484;11.314;2024-01-30T05:55:10;33.70;;;18.75;;
60257;SDS011;46115;44.484;11.314;2024-01-30T05:59:13;30.45;;;18.42;;
60257;SDS011;46115;44.484;11.314;2024-01-30T06:07:17;30.00;;;17.92;;
60257;SDS011;46115;44.484;11.314;2024-01-30T06:15:23;30.30;;;16.98;;
60257;SDS011;46115;44.484;11.314;2024-01-30T06:19:25;32.85;;;17.85;;
60257;SDS011;46115;44.484;11.314;2024-01-30T06:27:31;29.92;;;17.75;;
60257;SDS011;46115;44.484;11.314;2024-01-30T06:31:39;25.25;;;16.23;;
60257;SDS011;46115;44.484;11.314;2024-01-30T06:35:42;31.52;;;17.00;;
60257;SDS011;46115;44.484;11.314;2024-01-30T06:39:46;31.35;;;16.80;;
60257;SDS011;46115;44.484;11.314;2024-01-30T06:43:50;26.63;;;15.65;;
60257;SDS011;46115;44.484;11.314;2024-01-30T06:47:52;28.77;;;16.38;;
60257;SDS011;46115;44.484;11.314;2024-01-30T06:55:56;27.60;;;16.73;;
60257;SDS011;46115;44.484;11.314;2024-01-30T07:00:01;27.23;;;16.45;;
60257;SDS011;46115;44.484;11.314;2024-01-30T07:04:04;25.90;;;16.77;;
60257;SDS011;46115;44.484;11.314;2024-01-30T07:12:09;35.00;;;21.23;;
60257;SDS011;46115;44.484;11.314;2024-01-30T07:16:13;31.00;;;20.85;;
60257;SDS011;46115;44.484;11.314;2024-01-30T07:20:15;32.28;;;19.05;;
60257;SDS011;46115;44.484;11.314;2024-01-30T07:24:21;35.75;;;23.60;;
60257;SDS011;46115;44.484;11.314;2024-01-30T07:28:23;29.23;;;17.85;;
60257;SDS011;46115;44.484;11.314;2024-01-30T07:32:27;31.55;;;18.15;;
60257;SDS011;46115;44.484;11.314;2024-01-30T07:36:29;32.83;;;20.52;;
60257;SDS011;46115;44.484;11.314;2024-01-30T07:40:32;32.97;;;23.98;;
60257;SDS011;46115;44.484;11.314;2024-01-30T07:44:34;29.90;;;21.92;;
60257;SDS011;46115;44.484;11.314;2024-01-30T07:48:38;32.88;;;20.95;;
60257;SDS011;46115;44.484;11.314;2024-01-30T07:52:41;32.97;;;22.05;;
60257;SDS011;46115;44.484;11.314;2024-01-30T07:56:43;32.60;;;21.65;;
60257;SDS011;46115;44.484;11.314;2024-01-30T08:00:46;33.50;;;22.67;;
60257;SDS011;46115;44.484;11.314;2024-01-30T08:04:50;32.30;;;22.20;;
60257;SDS011;46115;44.484;11.314;2024-01-30T08:08:52;30.75;;;20.27;;
60257;SDS011;46115;44.484;11.314;2024-01-30T08:12:55;30.60;;;19.88;;
60257;SDS011;46115;44.484;11.314;2024-01-30T08:21:01;29.30;;;20.85;;
60257;SDS011;46115;44.484;11.314;2024-01-30T08:25:03;31.52;;;20.45;;
60257;SDS011;46115;44.484;11.314;2024-01-30T08:29:07;30.75;;;20.55;;
60257;SDS011;46115;44.484;11.314;2024-01-30T08:33:09;34.65;;;21.60;;
60257;SDS011;46115;44.484;11.314;2024-01-30T08:41:17;37.17;;;22.10;;
60257;SDS011;46115;44.484;11.314;2024-01-30T08:45:20;32.10;;;21.88;;
60257;SDS011;46115;44.484;11.314;2024-01-30T08:49:22;31.48;;;22.73;;
60257;SDS011;46115;44.484;11.314;2024-01-30T08:57:28;30.33;;;20.75;;
60257;SDS011;46115;44.484;11.314;2024-01-30T09:01:31;30.95;;;20.02;;
60257;SDS011;46115;44.484;11.314;2024-01-30T09:05:33;30.85;;;20.52;;
60257;SDS011;46115;44.484;11.314;2024-01-30T09:09:38;29.70;;;21.13;;
60257;SDS011;46115;44.484;11.314;2024-01-30T09:13:41;29.73;;;21.95;;
60257;SDS011;46115;44.484;11.314;2024-01-30T09:17:44;29.23;;;22.00;;
60257;SDS011;46115;44.484;11.314;2024-01-30T09:21:46;28.00;;;21.70;;
60257;SDS011;46115;44.484;11.314;2024-01-30T09:25:50;28.38;;;20.30;;
60257;SDS011;46115;44.484;11.314;2024-01-30T09:29:53;23.38;;;20.42;;
60257;SDS011;46115;44.484;11.314;2024-01-30T09:33:55;23.90;;;19.25;;
60257;SDS011;46115;44.484;11.314;2024-01-30T09:37:58;22.83;;;18.48;;
60257;SDS011;46115;44.484;11.314;2024-01-30T09:42:02;22.45;;;18.98;;
60257;SDS011;46115;44.484;11.314;2024-01-30T09:46:12;24.55;;;18.38;;
60257;SDS011;46115;44.484;11.314;2024-01-30T09:50:17;26.83;;;18.40;;
60257;SDS011;46115;44.484;11.314;2024-01-30T09:54:20;27.38;;;17.75;;
60257;SDS011;46115;44.484;11.314;2024-01-30T09:58:24;28.58;;;18.63;;
60257;SDS011;46115;44.484;11.314;2024-01-30T10:02:27;26.88;;;18.40;;
60257;SDS011;46115;44.484;11.314;2024-01-30T10:06:29;31.20;;;19.90;;
60257;SDS011;46115;44.484;11.314;2024-01-30T10:10:32;33.00;;;20.02;;
60257;SDS011;46115;44.484;11.314;2024-01-30T10:14:38;32.35;;;20.23;;
60257;SDS011;46115;44.484;11.314;2024-01-30T10:18:41;31.80;;;19.95;;
60257;SDS011;46115;44.484;11.314;2024-01-30T10:22:43;33.28;;;19.30;;
60257;SDS011;46115;44.484;11.314;2024-01-30T10:26:46;38.55;;;20.85;;
60257;SDS011;46115;44.484;11.314;2024-01-30T10:30:58;37.53;;;21.15;;
60257;SDS011;46115;44.484;11.314;2024-01-30T10:35:01;35.60;;;21.42;;
60257;SDS011;46115;44.484;11.314;2024-01-30T10:39:04;37.78;;;23.02;;
60257;SDS011;46115;44.484;11.314;2024-01-30T10:43:09;34.55;;;22.10;;
60257;SDS011;46115;44.484;11.314;2024-01-30T10:47:18;37.75;;;23.90;;
60257;SDS011;46115;44.484;11.314;2024-01-30T10:51:28;32.85;;;21.85;;
60257;SDS011;46115;44.484;11.314;2024-01-30T10:55:30;33.97;;;20.98;;
60257;SDS011;46115;44.484;11.314;2024-01-30T10:59:33;30.48;;;20.25;;
60257;SDS011;46115;44.484;11.314;2024-01-30T11:03:37;30.15;;;20.42;;
60257;SDS011;46115;44.484;11.314;2024-01-30T11:07:40;32.15;;;21.48;;
60257;SDS011;46115;44.484;11.314;2024-01-30T11:11:49;31.05;;;21.10;;
60257;SDS011;46115;44.484;11.314;2024-01-30T11:15:52;37.28;;;22.90;;
60257;SDS011;46115;44.484;11.314;2024-01-30T11:19:56;35.58;;;22.63;;
60257;SDS011;46115;44.484;11.314;2024-01-30T11:24:02;36.85;;;23.35;;
60257;SDS011;46115;44.484;11.314;2024-01-30T11:28:05;32.40;;;22.13;;
60257;SDS011;46115;44.484;11.314;2024-01-30T11:32:16;36.53;;;23.70;;
60257;SDS011;46115;44.484;11.314;2024-01-30T11:36:26;40.90;;;25.58;;
60257;SDS011;46115;44.484;11.314;2024-01-30T11:40:30;37.72;;;25.17;;
60257;SDS011;46115;44.484;11.314;2024-01-30T11:44:33;37.80;;;25.15;;
60257;SDS011;46115;44.484;11.314;2024-01-30T11:48:36;35.58;;;24.55;;
60257;SDS011;46115;44.484;11.314;2024-01-30T11:52:40;36.10;;;24.17;;
60257;SDS011;46115;44.484;11.314;2024-01-30T11:56:44;37.53;;;25.35;;
60257;SDS011;46115;44.484;11.314;2024-01-30T12:00:52;39.63;;;25.15;;
60257;SDS011;46115;44.484;11.314;2024-01-30T12:04:56;35.55;;;22.85;;
60257;SDS011;46115;44.484;11.314;2024-01-30T12:09:00;32.83;;;22.02;;
60257;SDS011;46115;44.484;11.314;2024-01-30T12:13:05;35.42;;;22.35;;
60257;SDS011;46115;44.484;11.314;2024-01-30T12:17:07;37.63;;;22.00;;
60257;SDS011;46115;44.484;11.314;2024-01-30T12:21:10;31.48;;;19.77;;
60257;SDS011;46115;44.484;11.314;2024-01-30T12:25:14;33.50;;;21.02;;
60257;SDS011;46115;44.484;11.314;2024-01-30T12:29:17;32.78;;;21.83;;
60257;SDS011;46115;44.484;11.314;2024-01-30T12:33:22;36.50;;;22.98;;
60257;SDS011;46115;44.484;11.314;2024-01-30T12:37:27;37.25;;;22.73;;
60257;SDS011;46115;44.484;11.314;2024-01-30T12:41:31;36.88;;;22.25;;
60257;SDS011;46115;44.484;11.314;2024-01-30T12:45:34;38.30;;;22.88;;
60257;SDS011;46115;44.484;11.314;2024-01-30T12:49:37;34.88;;;23.02;;
60257;SDS011;46115;44.484;11.314;2024-01-30T12:57:43;36.58;;;23.15;;
60257;SDS011;46115;44.484;11.314;2024-01-30T13:01:46;40.28;;;23.85;;
60257;SDS011;46115;44.484;11.314;2024-01-30T13:05:48;40.45;;;23.33;;
60257;SDS011;46115;44.484;11.314;2024-01-30T13:09:50;39.95;;;24.52;;
60257;SDS011;46115;44.484;11.314;2024-01-30T13:13:54;36.13;;;23.80;;
60257;SDS011;46115;44.484;11.314;2024-01-30T13:17:57;39.63;;;23.50;;
60257;SDS011;46115;44.484;11.314;2024-01-30T13:21:59;35.85;;;23.77;;
60257;SDS011;46115;44.484;11.314;2024-01-30T13:26:01;40.30;;;23.75;;
60257;SDS011;46115;44.484;11.314;2024-01-30T13:30:06;39.42;;;23.80;;
60257;SDS011;46115;44.484;11.314;2024-01-30T13:34:09;38.63;;;23.63;;
60257;SDS011;46115;44.484;11.314;2024-01-30T13:38:12;38.20;;;23.50;;
60257;SDS011;46115;44.484;11.314;2024-01-30T13:42:16;36.28;;;24.00;;
60257;SDS011;46115;44.484;11.314;2024-01-30T13:46:19;39.35;;;23.70;;
60257;SDS011;46115;44.484;11.314;2024-01-30T13:50:22;38.03;;;24.25;;
60257;SDS011;46115;44.484;11.314;2024-01-30T13:54:24;39.35;;;24.05;;
60257;SDS011;46115;44.484;11.314;2024-01-30T13:58:27;37.50;;;23.95;;
60257;SDS011;46115;44.484;11.314;2024-01-30T14:02:31;43.50;;;24.90;;
60257;SDS011;46115;44.484;11.314;2024-01-30T14:06:33;38.63;;;25.23;;
60257;SDS011;46115;44.484;11.314;2024-01-30T14:10:35;40.38;;;24.38;;
60257;SDS011;46115;44.484;11.314;2024-01-30T14:14:38;40.50;;;24.63;;
60257;SDS011;46115;44.484;11.314;2024-01-30T14:22:44;37.35;;;24.75;;
60257;SDS011;46115;44.484;11.314;2024-01-30T14:26:46;39.42;;;24.45;;
60257;SDS011;46115;44.484;11.314;2024-01-30T14:30:49;39.72;;;24.00;;
60257;SDS011;46115;44.484;11.314;2024-01-30T14:34:52;39.80;;;24.75;;
60257;SDS011;46115;44.484;11.314;2024-01-30T14:38:55;43.78;;;25.95;;
60257;SDS011;46115;44.484;11.314;2024-01-30T14:42:57;38.60;;;24.27;;
60257;SDS011;46115;44.484;11.314;2024-01-30T14:47:00;35.60;;;22.95;;
60257;SDS011;46115;44.484;11.314;2024-01-30T14:51:04;38.15;;;24.20;;
60257;SDS011;46115;44.484;11.314;2024-01-30T14:55:06;40.80;;;24.20;;
60257;SDS011;46115;44.484;11.314;2024-01-30T14:59:09;38.00;;;24.20;;
60257;SDS011;46115;44.484;11.314;2024-01-30T15:03:12;40.47;;;23.73;;
60257;SDS011;46115;44.484;11.314;2024-01-30T15:11:17;40.75;;;24.00;;
60257;SDS011;46115;44.484;11.314;2024-01-30T15:19:22;38.97;;;23.48;;
60257;SDS011;46115;44.484;11.314;2024-01-30T15:23:26;36.83;;;23.17;;
60257;SDS011;46115;44.484;11.314;2024-01-30T15:27:28;36.63;;;23.98;;
60257;SDS011;46115;44.484;11.314;2024-01-30T15:31:30;37.50;;;24.83;;
60257;SDS011;46115;44.484;11.314;2024-01-30T15:39:36;39.17;;;25.98;;
60257;SDS011;46115;44.484;11.314;2024-01-30T15:43:39;39.63;;;25.25;;
60257;SDS011;46115;44.484;11.314;2024-01-30T15:47:41;40.25;;;25.88;;
60257;SDS011;46115;44.484;11.314;2024-01-30T15:51:43;40.00;;;26.17;;
60257;SDS011;46115;44.484;11.314;2024-01-30T15:55:47;40.67;;;25.90;;
60257;SDS011;46115;44.484;11.314;2024-01-30T15:59:50;49.45;;;26.15;;
60257;SDS011;46115;44.484;11.314;2024-01-30T16:03:53;44.45;;;25.60;;
60257;SDS011;46115;44.484;11.314;2024-01-30T16:11:58;41.92;;;26.52;;
60257;SDS011;46115;44.484;11.314;2024-01-30T16:16:01;43.25;;;27.63;;
60257;SDS011;46115;44.484;11.314;2024-01-30T16:20:04;37.50;;;25.92;;
60257;SDS011;46115;44.484;11.314;2024-01-30T16:24:08;40.00;;;25.05;;
60257;SDS011;46115;44.484;11.314;2024-01-30T16:28:11;40.78;;;26.80;;
60257;SDS011;46115;44.484;11.314;2024-01-30T16:32:14;41.50;;;25.50;;
60257;SDS011;46115;44.484;11.314;2024-01-30T16:40:18;40.33;;;26.60;;
60257;SDS011;46115;44.484;11.314;2024-01-30T23:06:09;42.40;;;24.23;;
60257;SDS011;46115;44.484;11.314;2024-01-30T23:10:12;40.88;;;24.40;;
60257;SDS011;46115;44.484;11.314;2024-01-30T23:14:14;37.58;;;23.67;;
60257;SDS011;46115;44.484;11.314;2024-01-30T23:18:17;38.45;;;24.10;;
60257;SDS011;46115;44.484;11.314;2024-01-30T23:22:21;39.60;;;24.58;;
60257;SDS011;46115;44.484;11.314;2024-01-30T23:26:23;41.47;;;25.00;;
60257;SDS011;46115;44.484;11.314;2024-01-30T23:34:27;37.70;;;22.55;;
60257;SDS011;46115;44.484;11.314;2024-01-30T23:38:31;35.78;;;23.83;;
60257;SDS011;46115;44.484;11.314;2024-01-30T23:42:33;38.20;;;24.33;;
60257;SDS011;46115;44.484;11.314;2024-01-30T23:50:38;35.33;;;23.10;;
60257;SDS011;46115;44.484;11.314;2024-01-30T23:54:41;37.25;;;23.17;;
60257;SDS011;46115;44.484;11.314;2024-01-30T23:58:44;37.63;;;23.50;;
